createdAt,value
2022-09-28T00:02:26.574Z,7.60
2022-09-28T00:04:53.241Z,7.63
2022-09-28T00:07:19.822Z,7.66
2022-09-28T00:09:46.399Z,7.70
2022-09-28T00:12:12.950Z,7.58
2022-09-28T00:14:40.610Z,7.47
2022-09-28T00:17:08.286Z,7.39
2022-09-28T00:19:34.861Z,7.29
2022-09-28T00:22:01.381Z,7.24
2022-09-28T00:24:28.395Z,7.17
2022-09-28T00:26:57.197Z,7.11
2022-09-28T00:29:24.873Z,7.12
2022-09-28T00:31:53.483Z,7.09
2022-09-28T00:34:20.664Z,7.08
2022-09-28T00:36:48.057Z,7.07
2022-09-28T00:39:16.107Z,7.09
2022-09-28T00:41:43.330Z,7.18
2022-09-28T00:44:25.286Z,7.23
2022-09-28T00:47:38.021Z,7.26
2022-09-28T00:50:30.011Z,7.45
2022-09-28T00:53:19.844Z,7.60
2022-09-28T00:55:54.073Z,7.86
2022-09-28T00:58:33.749Z,8.09
2022-09-28T01:01:00.542Z,8.34
2022-09-28T01:03:28.852Z,8.45
2022-09-28T01:05:58.663Z,8.47
2022-09-28T01:08:27.910Z,8.46
2022-09-28T01:10:54.475Z,8.55
2022-09-28T01:13:23.588Z,8.59
2022-09-28T01:16:08.099Z,8.69
2022-09-28T01:18:59.293Z,8.66
2022-09-28T01:21:26.153Z,8.56
2022-09-28T01:24:17.639Z,8.55
2022-09-28T01:27:10.952Z,8.56
2022-09-28T01:29:59.527Z,8.62
2022-09-28T01:32:35.779Z,8.63
2022-09-28T01:35:17.373Z,8.62
2022-09-28T01:37:54.072Z,8.71
2022-09-28T01:40:24.656Z,8.68
2022-09-28T01:42:57.130Z,8.70
2022-09-28T01:45:33.052Z,8.64
2022-09-28T01:48:03.794Z,8.65
2022-09-28T01:50:36.756Z,8.52
2022-09-28T01:53:11.378Z,8.49
2022-09-28T01:55:46.794Z,8.48
2022-09-28T01:58:16.403Z,8.51
2022-09-28T02:00:48.448Z,8.57
2022-09-28T02:03:25.742Z,8.57
2022-09-28T02:06:01.958Z,8.62
2022-09-28T02:08:36.561Z,8.81
2022-09-28T02:11:08.541Z,8.84
2022-09-28T02:13:43.001Z,9.06
2022-09-28T02:16:25.926Z,9.12
2022-09-28T02:18:52.701Z,9.12
2022-09-28T02:21:39.030Z,9.15
2022-09-28T02:24:21.271Z,9.27
2022-09-28T02:26:50.838Z,9.40
2022-09-28T02:29:17.840Z,9.51
2022-09-28T02:31:47.337Z,9.59
2022-09-28T02:34:13.949Z,9.62
2022-09-28T02:36:40.641Z,9.59
2022-09-28T02:39:17.823Z,9.74
2022-09-28T02:42:02.996Z,9.68
2022-09-28T02:44:57.788Z,9.58
2022-09-28T02:47:28.262Z,9.48
2022-09-28T02:50:13.807Z,9.59
2022-09-28T02:53:03.303Z,9.55
2022-09-28T02:55:39.609Z,9.50
2022-09-28T02:58:20.549Z,9.38
2022-09-28T03:01:31.353Z,9.30
2022-09-28T03:04:21.509Z,9.25
2022-09-28T03:06:54.900Z,9.15
2022-09-28T03:09:32.764Z,9.08
2022-09-28T03:12:06.592Z,9.04
2022-09-28T03:14:33.384Z,9.25
2022-09-28T03:16:59.922Z,9.30
2022-09-28T03:19:31.526Z,9.36
2022-09-28T03:21:59.184Z,9.35
2022-09-28T03:24:26.235Z,9.40
2022-09-28T03:26:52.849Z,9.51
2022-09-28T03:29:22.263Z,9.61
2022-09-28T03:31:49.239Z,9.64
2022-09-28T03:34:15.985Z,9.62
2022-09-28T03:36:42.982Z,9.56
2022-09-28T03:39:09.526Z,9.51
2022-09-28T03:41:36.081Z,9.46
2022-09-28T03:44:03.082Z,9.36
2022-09-28T03:46:29.630Z,9.30
2022-09-28T03:48:58.272Z,9.27
2022-09-28T03:51:24.889Z,9.24
2022-09-28T03:53:51.500Z,9.26
2022-09-28T03:56:18.191Z,9.19
2022-09-28T03:58:44.750Z,9.18
2022-09-28T04:01:16.818Z,9.03
2022-09-28T04:03:44.426Z,9.03
2022-09-28T04:06:11.567Z,8.97
2022-09-28T04:08:38.439Z,8.86
2022-09-28T04:11:05.781Z,8.82
2022-09-28T04:13:32.469Z,8.70
2022-09-28T04:16:01.226Z,8.64
2022-09-28T04:18:28.213Z,8.59
2022-09-28T04:21:06.809Z,8.51
2022-09-28T04:23:35.042Z,8.55
2022-09-28T04:26:02.532Z,8.50
2022-09-28T04:28:47.767Z,8.41
2022-09-28T04:31:19.749Z,8.45
2022-09-28T04:33:46.565Z,8.27
2022-09-28T04:36:13.619Z,8.26
2022-09-28T04:38:52.939Z,8.19
2022-09-28T04:41:22.358Z,8.20
2022-09-28T04:43:49.603Z,8.26
2022-09-28T04:46:16.238Z,8.14
2022-09-28T04:48:42.932Z,8.19
2022-09-28T04:51:09.476Z,8.02
2022-09-28T04:53:36.173Z,8.08
2022-09-28T04:56:11.680Z,8.06
2022-09-28T04:58:38.779Z,8.06
2022-09-28T05:01:08.177Z,8.11
2022-09-28T05:03:35.624Z,8.09
2022-09-28T05:06:02.711Z,8.03
2022-09-28T05:08:30.192Z,7.93
2022-09-28T05:10:59.643Z,7.93
2022-09-28T05:13:27.052Z,7.94
2022-09-28T05:16:03.071Z,7.86
2022-09-28T05:18:31.831Z,7.80
2022-09-28T05:20:58.469Z,7.69
2022-09-28T05:23:25.031Z,7.73
2022-09-28T05:25:51.672Z,7.60
2022-09-28T05:28:26.179Z,7.59
2022-09-28T05:30:52.754Z,7.44
2022-09-28T05:33:19.448Z,7.39
2022-09-28T05:35:49.808Z,7.31
2022-09-28T05:38:19.192Z,7.62
2022-09-28T05:40:45.903Z,7.82
2022-09-28T05:43:12.567Z,7.81
2022-09-28T05:45:39.310Z,7.88
2022-09-28T05:48:05.935Z,8.11
2022-09-28T05:50:32.816Z,8.24
2022-09-28T05:53:01.332Z,8.45
2022-09-28T05:55:28.222Z,8.67
2022-09-28T05:57:59.350Z,8.88
2022-09-28T06:00:27.556Z,9.04
2022-09-28T06:03:09.371Z,9.16
2022-09-28T06:05:36.935Z,9.21
2022-09-28T06:08:07.073Z,9.43
2022-09-28T06:10:34.512Z,9.62
2022-09-28T06:13:01.280Z,9.82
2022-09-28T06:15:30.234Z,10.01
2022-09-28T06:17:57.885Z,10.30
2022-09-28T06:20:29.203Z,10.51
2022-09-28T06:22:56.085Z,10.96
2022-09-28T06:25:24.136Z,12.01
2022-09-28T06:28:02.108Z,12.28
2022-09-28T06:30:32.636Z,12.72
2022-09-28T06:33:01.046Z,12.83
2022-09-28T06:35:30.494Z,13.20
2022-09-28T06:38:00.584Z,13.66
2022-09-28T06:40:27.892Z,13.86
2022-09-28T06:43:02.570Z,14.76
2022-09-28T06:45:30.551Z,15.17
2022-09-28T06:47:59.450Z,16.35
2022-09-28T06:50:28.114Z,17.01
2022-09-28T06:52:55.471Z,16.66
2022-09-28T06:55:22.406Z,18.12
2022-09-28T06:58:00.967Z,18.60
2022-09-28T07:00:28.669Z,19.52
2022-09-28T07:02:55.309Z,20.09
2022-09-28T07:05:27.033Z,19.70
2022-09-28T07:07:57.892Z,19.73
2022-09-28T07:10:27.772Z,19.12
2022-09-28T07:12:55.985Z,18.97
2022-09-28T07:15:23.704Z,20.10
2022-09-28T07:18:00.115Z,19.34
2022-09-28T07:20:29.543Z,19.31
2022-09-28T07:23:01.516Z,19.42
2022-09-28T07:25:37.114Z,18.89
2022-09-28T07:28:04.905Z,18.36
2022-09-28T07:30:34.584Z,18.45
2022-09-28T07:33:04.558Z,16.88
2022-09-28T07:35:31.857Z,17.60
2022-09-28T07:38:00.407Z,17.44
2022-09-28T07:40:48.426Z,16.49
2022-09-28T07:43:20.524Z,16.35
2022-09-28T07:45:49.381Z,15.73
2022-09-28T07:48:17.116Z,16.30
2022-09-28T07:50:57.440Z,15.88
2022-09-28T07:53:25.223Z,15.59
2022-09-28T07:55:56.582Z,14.91
2022-09-28T07:58:23.416Z,15.39
2022-09-28T08:00:50.872Z,15.91
2022-09-28T08:03:19.778Z,16.13
2022-09-28T08:05:47.428Z,15.85
2022-09-28T08:08:15.021Z,16.03
2022-09-28T08:10:47.131Z,15.90
2022-09-28T08:13:16.376Z,16.25
2022-09-28T08:15:42.991Z,15.58
2022-09-28T08:18:09.932Z,16.40
2022-09-28T08:20:55.115Z,15.63
2022-09-28T08:23:21.954Z,15.58
2022-09-28T08:25:49.145Z,15.66
2022-09-28T08:28:17.742Z,15.74
2022-09-28T08:30:45.747Z,16.29
2022-09-28T08:33:17.875Z,16.00
2022-09-28T08:35:46.868Z,16.72
2022-09-28T08:38:14.113Z,16.79
2022-09-28T08:40:59.008Z,17.09
2022-09-28T08:43:53.627Z,17.07
2022-09-28T08:46:26.389Z,17.16
2022-09-28T08:49:20.998Z,17.52
2022-09-28T08:52:03.316Z,16.97
2022-09-28T08:54:48.857Z,17.82
2022-09-28T08:57:27.683Z,17.81
2022-09-28T08:59:56.971Z,18.06
2022-09-28T09:02:28.665Z,17.66
2022-09-28T09:04:56.972Z,17.50
2022-09-28T09:07:43.522Z,17.07
2022-09-28T09:10:30.116Z,17.67
2022-09-28T09:13:20.160Z,18.35
2022-09-28T09:16:21.951Z,18.30
2022-09-28T09:19:14.400Z,17.43
2022-09-28T09:21:46.880Z,17.54
2022-09-28T09:24:55.366Z,17.83
2022-09-28T09:27:53.487Z,18.50
2022-09-28T09:30:29.617Z,17.95
2022-09-28T09:33:05.025Z,17.87
2022-09-28T09:35:46.922Z,18.09
2022-09-28T09:38:39.170Z,18.29
2022-09-28T09:41:26.252Z,18.88
2022-09-28T09:44:04.594Z,18.44
2022-09-28T09:47:08.144Z,18.73
2022-09-28T09:49:50.873Z,18.34
2022-09-28T09:52:29.484Z,19.33
2022-09-28T09:54:59.652Z,19.18
2022-09-28T09:57:30.540Z,19.39
2022-09-28T10:00:00.507Z,19.54
2022-09-28T10:02:31.751Z,19.17
2022-09-28T10:05:04.811Z,19.30
2022-09-28T10:07:44.997Z,18.86
2022-09-28T10:10:18.162Z,18.53
2022-09-28T10:12:45.188Z,18.49
2022-09-28T10:15:17.706Z,18.55
2022-09-28T10:17:44.249Z,18.72
2022-09-28T10:20:16.170Z,18.83
2022-09-28T10:22:43.919Z,19.08
2022-09-28T10:25:13.772Z,20.18
2022-09-28T10:27:47.219Z,19.63
2022-09-28T10:30:26.978Z,19.81
2022-09-28T10:32:59.199Z,19.06
2022-09-28T10:35:29.618Z,18.09
2022-09-28T10:38:17.293Z,18.08
2022-09-28T10:40:53.072Z,18.28
2022-09-28T10:43:26.820Z,18.73
2022-09-28T10:46:09.368Z,18.76
2022-09-28T10:49:13.290Z,19.08
2022-09-28T10:51:43.687Z,19.28
2022-09-28T10:54:16.603Z,20.22
2022-09-28T10:56:43.621Z,20.96
2022-09-28T10:59:28.531Z,19.71
2022-09-28T11:02:07.239Z,18.76
2022-09-28T11:04:40.599Z,19.66
2022-09-28T11:07:34.752Z,21.20
2022-09-28T11:10:01.968Z,21.30
2022-09-28T11:12:42.495Z,21.98
2022-09-28T11:15:19.782Z,23.39
2022-09-28T11:17:46.607Z,22.11
2022-09-28T11:20:27.924Z,22.02
2022-09-28T11:22:58.362Z,20.40
2022-09-28T11:25:26.445Z,19.76
2022-09-28T11:27:52.923Z,20.32
2022-09-28T11:30:32.906Z,21.83
2022-09-28T11:33:17.720Z,22.10
2022-09-28T11:36:03.428Z,20.98
2022-09-28T11:38:54.952Z,20.58
2022-09-28T11:41:36.625Z,20.99
2022-09-28T11:44:12.625Z,21.79
2022-09-28T11:46:39.119Z,22.54
2022-09-28T11:49:34.954Z,21.26
2022-09-28T11:52:14.204Z,22.68
2022-09-28T11:54:47.464Z,22.93
2022-09-28T11:57:24.638Z,23.07
2022-09-28T12:00:01.773Z,21.83
2022-09-28T12:02:39.876Z,22.60
2022-09-28T12:05:20.538Z,22.89
2022-09-28T12:07:56.993Z,23.01
2022-09-28T12:10:48.176Z,22.38
2022-09-28T12:13:33.283Z,23.41
2022-09-28T12:19:43.852Z,22.32
2022-09-28T12:22:18.334Z,22.77
2022-09-28T12:24:51.691Z,23.13
2022-09-28T12:27:26.996Z,22.49
2022-09-28T12:30:05.960Z,22.87
2022-09-28T12:32:46.518Z,22.87
2022-09-28T12:35:16.200Z,22.60
2022-09-28T12:38:08.847Z,21.63
2022-09-28T12:40:38.479Z,20.92
2022-09-28T12:43:30.095Z,21.34
2022-09-28T12:46:15.549Z,21.51
2022-09-28T12:48:53.522Z,21.49
2022-09-28T12:51:52.357Z,20.42
2022-09-28T12:54:56.617Z,20.78
2022-09-28T12:57:38.184Z,20.75
2022-09-28T13:00:23.361Z,21.04
2022-09-28T13:03:16.904Z,20.69
2022-09-28T13:05:58.591Z,20.97
2022-09-28T13:09:03.001Z,21.03
2022-09-28T13:11:33.399Z,20.93
2022-09-28T13:14:24.704Z,21.14
2022-09-28T13:17:03.331Z,20.70
2022-09-28T13:19:59.285Z,20.10
2022-09-28T13:22:35.002Z,20.49
2022-09-28T13:25:12.465Z,20.77
2022-09-28T13:27:45.480Z,20.82
2022-09-28T13:30:14.659Z,21.44
2022-09-28T13:32:42.443Z,21.72
2022-09-28T13:35:19.427Z,21.57
2022-09-28T13:37:46.124Z,21.14
2022-09-28T13:40:12.776Z,20.78
2022-09-28T13:42:45.765Z,20.87
2022-09-28T13:45:21.475Z,20.99
2022-09-28T13:48:00.241Z,20.39
2022-09-28T13:50:45.281Z,20.89
2022-09-28T13:53:51.605Z,20.93
2022-09-28T13:56:36.075Z,20.74
2022-09-28T13:59:21.886Z,20.77
2022-09-28T14:02:21.172Z,19.74
2022-09-28T14:05:01.940Z,19.24
2022-09-28T14:07:34.374Z,19.45
2022-09-28T14:10:21.111Z,19.62
2022-09-28T14:12:53.026Z,19.26
2022-09-28T14:15:28.928Z,19.51
2022-09-28T14:18:28.957Z,19.53
2022-09-28T14:21:02.990Z,18.65
2022-09-28T14:23:59.947Z,18.85
2022-09-28T14:26:47.943Z,18.53
2022-09-28T14:29:28.818Z,18.43
2022-09-28T14:31:58.291Z,18.40
2022-09-28T14:34:40.977Z,18.31
2022-09-28T14:37:44.018Z,18.22
2022-09-28T14:40:40.317Z,17.92
2022-09-28T14:43:24.726Z,17.76
2022-09-28T14:46:13.100Z,17.74
2022-09-28T14:48:57.836Z,17.52
2022-09-28T14:51:27.396Z,17.23
2022-09-28T14:53:56.440Z,17.34
2022-09-28T14:56:30.520Z,17.20
2022-09-28T14:58:59.612Z,17.28
2022-09-28T15:01:26.642Z,17.05
2022-09-28T15:04:00.391Z,16.86
2022-09-28T15:06:28.974Z,16.87
2022-09-28T15:08:55.636Z,16.86
2022-09-28T15:11:24.696Z,16.66
2022-09-28T15:14:04.573Z,16.54
2022-09-28T15:16:31.359Z,16.49
2022-09-28T15:19:04.082Z,16.46
2022-09-28T15:21:43.618Z,16.36
2022-09-28T15:24:30.638Z,16.40
2022-09-28T15:26:57.726Z,16.45
2022-09-28T15:29:27.251Z,16.25
2022-09-28T15:31:54.732Z,16.26
2022-09-28T15:34:51.793Z,16.29
2022-09-28T15:37:39.650Z,16.44
2022-09-28T15:40:15.135Z,16.40
2022-09-28T15:42:41.817Z,16.21
2022-09-28T15:45:14.501Z,16.15
2022-09-28T15:47:43.617Z,16.06
2022-09-28T15:50:26.811Z,16.07
2022-09-28T15:52:59.103Z,16.12
2022-09-28T15:55:27.739Z,16.07
2022-09-28T15:58:15.812Z,16.05
2022-09-28T16:00:44.654Z,15.95
2022-09-28T16:03:11.200Z,15.83
2022-09-28T16:05:46.173Z,15.75
2022-09-28T16:08:24.231Z,15.64
2022-09-28T16:11:18.263Z,15.54
2022-09-28T16:14:01.822Z,15.51
2022-09-28T16:16:33.326Z,15.39
2022-09-28T16:19:01.109Z,15.36
2022-09-28T16:21:44.955Z,15.28
2022-09-28T16:24:29.072Z,15.27
2022-09-28T16:26:57.215Z,15.35
2022-09-28T16:29:42.110Z,15.23
2022-09-28T16:32:24.751Z,15.24
2022-09-28T16:35:10.836Z,15.30
2022-09-28T16:37:40.926Z,15.05
2022-09-28T16:40:08.893Z,15.07
2022-09-28T16:42:36.807Z,15.12
2022-09-28T16:45:05.348Z,15.11
2022-09-28T16:47:34.107Z,14.98
2022-09-28T16:50:02.351Z,14.97
2022-09-28T16:52:47.522Z,14.98
2022-09-28T16:58:04.821Z,14.82
2022-09-28T17:00:32.510Z,14.91
2022-09-28T17:02:59.422Z,14.84
2022-09-28T17:05:26.165Z,14.81
2022-09-28T17:08:01.310Z,14.82
2022-09-28T17:10:50.125Z,14.76
2022-09-28T17:13:33.295Z,14.70
2022-09-28T17:16:06.258Z,14.66
2022-09-28T17:18:32.891Z,14.67
2022-09-28T17:21:03.616Z,14.64
2022-09-28T17:23:30.799Z,14.65
2022-09-28T17:25:59.030Z,14.63
2022-09-28T17:28:29.978Z,14.68
2022-09-28T17:30:56.804Z,14.60
2022-09-28T17:33:23.427Z,14.59
2022-09-28T17:35:52.638Z,14.56
2022-09-28T17:38:19.262Z,14.57
2022-09-28T17:40:48.014Z,14.59
2022-09-28T17:43:14.671Z,14.58
2022-09-28T17:45:41.379Z,14.49
2022-09-28T17:48:15.763Z,14.49
2022-09-28T17:50:46.358Z,14.46
2022-09-28T17:53:14.046Z,14.30
2022-09-28T17:55:43.401Z,14.37
2022-09-28T17:58:21.767Z,14.27
2022-09-28T18:00:50.650Z,14.11
2022-09-28T18:03:20.339Z,14.05
2022-09-28T18:05:49.799Z,14.03
2022-09-28T18:08:21.266Z,13.85
2022-09-28T18:10:48.002Z,13.86
2022-09-28T18:13:15.153Z,13.76
2022-09-28T18:15:42.130Z,13.57
2022-09-28T18:18:09.860Z,13.44
2022-09-28T18:20:37.132Z,13.26
2022-09-28T18:23:04.539Z,13.14
2022-09-28T18:25:31.095Z,13.08
2022-09-28T18:28:00.000Z,13.03
2022-09-28T18:30:27.929Z,13.00
2022-09-28T18:32:55.033Z,12.94
2022-09-28T18:35:23.212Z,12.91
2022-09-28T18:37:50.591Z,12.92
2022-09-28T18:40:17.479Z,12.76
2022-09-28T18:42:44.083Z,12.74
2022-09-28T18:45:11.367Z,12.68
2022-09-28T18:47:39.077Z,12.58
2022-09-28T18:50:06.209Z,12.54
2022-09-28T18:52:36.300Z,12.57
2022-09-28T18:55:04.372Z,12.56
2022-09-28T18:57:33.544Z,12.61
2022-09-28T19:00:01.126Z,12.55
2022-09-28T19:02:27.951Z,12.55
2022-09-28T19:04:54.614Z,12.47
2022-09-28T19:07:21.317Z,12.55
2022-09-28T19:09:47.925Z,12.53
2022-09-28T19:12:14.974Z,12.53
2022-09-28T19:14:41.627Z,12.46
2022-09-28T19:17:08.218Z,12.38
2022-09-28T19:19:35.780Z,12.39
2022-09-28T19:22:02.353Z,12.40
2022-09-28T19:24:29.469Z,12.40
2022-09-28T19:26:58.520Z,12.42
2022-09-28T19:29:25.089Z,12.38
2022-09-28T19:31:51.916Z,12.27
2022-09-28T19:34:18.745Z,12.24
2022-09-28T19:36:45.475Z,12.19
2022-09-28T19:39:15.216Z,12.22
2022-09-28T19:41:51.423Z,12.24
2022-09-28T19:44:27.269Z,12.26
2022-09-28T19:46:58.347Z,12.28
2022-09-28T19:49:27.503Z,12.26
2022-09-28T19:52:14.966Z,12.25
2022-09-28T19:54:56.604Z,12.28
2022-09-28T19:57:26.056Z,12.21
2022-09-28T19:59:55.042Z,12.21
2022-09-28T20:02:24.566Z,12.13
2022-09-28T20:04:51.153Z,12.18
2022-09-28T20:07:17.751Z,12.18
2022-09-28T20:09:44.319Z,12.25
2022-09-28T20:12:11.213Z,12.16
2022-09-28T20:14:39.630Z,12.08
2022-09-28T20:17:07.433Z,12.14
2022-09-28T20:19:34.986Z,12.12
2022-09-28T20:22:02.954Z,12.18
2022-09-28T20:24:30.417Z,12.15
2022-09-28T20:26:57.063Z,12.17
2022-09-28T20:29:24.369Z,12.13
2022-09-28T20:31:51.844Z,12.21
2022-09-28T20:34:18.610Z,12.11
2022-09-28T20:36:45.245Z,12.11
2022-09-28T20:39:12.348Z,12.13
2022-09-28T20:41:39.224Z,12.17
2022-09-28T20:44:06.737Z,12.16
2022-09-28T20:46:35.484Z,12.14
2022-09-28T20:49:02.489Z,12.12
2022-09-28T20:51:29.118Z,12.16
2022-09-28T20:53:57.660Z,12.13
2022-09-28T20:56:24.198Z,12.08
2022-09-28T20:58:51.539Z,12.09
2022-09-28T21:01:21.017Z,12.08
2022-09-28T21:03:48.972Z,11.97
2022-09-28T21:06:17.506Z,11.98
2022-09-28T21:08:44.993Z,11.97
2022-09-28T21:11:12.816Z,12.03
2022-09-28T21:13:42.936Z,11.99
2022-09-28T21:16:11.726Z,11.99
2022-09-28T21:18:40.058Z,12.02
2022-09-28T21:21:08.790Z,12.04
2022-09-28T21:23:36.246Z,12.07
2022-09-28T21:26:08.794Z,12.06
2022-09-28T21:28:36.246Z,12.08
2022-09-28T21:31:09.382Z,12.12
2022-09-28T21:33:36.165Z,12.12
2022-09-28T21:36:07.028Z,12.05
2022-09-28T21:38:35.818Z,12.09
2022-09-28T21:41:02.553Z,12.13
2022-09-28T21:43:31.558Z,12.11
2022-09-28T21:45:58.595Z,12.02
2022-09-28T21:48:27.297Z,12.10
2022-09-28T21:51:16.900Z,12.04
2022-09-28T21:53:43.655Z,12.08
2022-09-28T21:56:12.858Z,12.05
2022-09-28T21:58:40.093Z,12.05
2022-09-28T22:01:14.806Z,12.09
2022-09-28T22:03:43.972Z,12.08
2022-09-28T22:06:11.353Z,12.12
2022-09-28T22:08:38.553Z,12.15
2022-09-28T22:11:08.144Z,12.12
2022-09-28T22:13:43.697Z,12.12
2022-09-28T22:16:11.939Z,12.11
2022-09-28T22:18:38.545Z,12.15
2022-09-28T22:21:14.934Z,12.16
2022-09-28T22:23:41.771Z,12.24
2022-09-28T22:26:18.924Z,12.26
2022-09-28T22:28:53.056Z,12.23
2022-09-28T22:31:22.690Z,12.23
2022-09-28T22:33:49.277Z,12.29
2022-09-28T22:36:16.688Z,12.28
2022-09-28T22:38:44.777Z,12.24
2022-09-28T22:41:12.083Z,12.27
2022-09-28T22:43:38.830Z,12.28
2022-09-28T22:46:11.543Z,12.29
2022-09-28T22:48:38.495Z,12.39
2022-09-28T22:51:06.851Z,12.30
2022-09-28T22:53:34.933Z,12.34
2022-09-28T22:56:04.892Z,12.38
2022-09-28T22:58:35.697Z,12.38
2022-09-28T23:01:18.024Z,12.29
2022-09-28T23:03:44.937Z,12.34
2022-09-28T23:06:13.684Z,12.34
2022-09-28T23:08:40.237Z,12.33
2022-09-28T23:11:07.106Z,12.32
2022-09-28T23:13:33.941Z,12.30
2022-09-28T23:16:06.574Z,12.30
2022-09-28T23:18:36.931Z,12.33
2022-09-28T23:21:05.187Z,12.30
2022-09-28T23:23:32.312Z,12.30
2022-09-28T23:25:59.544Z,12.29
2022-09-28T23:28:27.520Z,12.27
2022-09-28T23:30:54.196Z,12.33
2022-09-28T23:33:21.935Z,12.33
2022-09-28T23:35:49.373Z,12.43
2022-09-28T23:38:18.314Z,12.37
2022-09-28T23:40:46.423Z,12.39
2022-09-28T23:43:13.762Z,12.40
2022-09-28T23:45:42.687Z,12.39
2022-09-28T23:48:09.501Z,12.40
2022-09-28T23:50:36.149Z,12.32
2022-09-28T23:53:02.740Z,12.30
2022-09-28T23:55:29.343Z,12.37
2022-09-28T23:57:56.750Z,12.32
